sensor_id;sensor_type;location;lat;lon;timestamp;P1;durP1;ratioP1;P2;durP2;ratioP2
62572;SDS011;48626;51.678;5.806;2023-04-24T00:00:03;7.47;;;5.53;;
62572;SDS011;48626;51.678;5.806;2023-04-24T00:02:31;7.25;;;5.35;;
62572;SDS011;48626;51.678;5.806;2023-04-24T00:05:02;8.32;;;5.05;;
62572;SDS011;48626;51.678;5.806;2023-04-24T00:07:30;5.97;;;5.15;;
62572;SDS011;48626;51.678;5.806;2023-04-24T00:09:56;6.10;;;4.93;;
62572;SDS011;48626;51.678;5.806;2023-04-24T00:12:22;7.07;;;4.68;;
62572;SDS011;48626;51.678;5.806;2023-04-24T00:14:48;8.43;;;4.82;;
62572;SDS011;48626;51.678;5.806;2023-04-24T00:17:14;5.57;;;4.40;;
62572;SDS011;48626;51.678;5.806;2023-04-24T00:19:40;6.75;;;5.00;;
62572;SDS011;48626;51.678;5.806;2023-04-24T00:22:06;8.40;;;5.13;;
62572;SDS011;48626;51.678;5.806;2023-04-24T00:24:32;7.47;;;5.55;;
62572;SDS011;48626;51.678;5.806;2023-04-24T00:26:58;10.43;;;6.05;;
62572;SDS011;48626;51.678;5.806;2023-04-24T00:29:25;9.05;;;6.28;;
62572;SDS011;48626;51.678;5.806;2023-04-24T00:31:51;12.35;;;6.85;;
62572;SDS011;48626;51.678;5.806;2023-04-24T00:34:17;8.77;;;6.43;;
62572;SDS011;48626;51.678;5.806;2023-04-24T00:36:43;10.63;;;6.90;;
62572;SDS011;48626;51.678;5.806;2023-04-24T00:39:09;8.93;;;7.05;;
62572;SDS011;48626;51.678;5.806;2023-04-24T00:41:35;9.65;;;7.07;;
62572;SDS011;48626;51.678;5.806;2023-04-24T00:44:00;11.77;;;7.22;;
62572;SDS011;48626;51.678;5.806;2023-04-24T00:46:26;11.15;;;7.55;;
62572;SDS011;48626;51.678;5.806;2023-04-24T00:48:52;13.60;;;8.32;;
62572;SDS011;48626;51.678;5.806;2023-04-24T00:51:18;12.20;;;7.70;;
62572;SDS011;48626;51.678;5.806;2023-04-24T00:53:43;17.27;;;8.40;;
62572;SDS011;48626;51.678;5.806;2023-04-24T00:56:09;16.30;;;8.90;;
62572;SDS011;48626;51.678;5.806;2023-04-24T00:58:35;16.67;;;9.65;;
62572;SDS011;48626;51.678;5.806;2023-04-24T01:01:02;16.63;;;8.82;;
62572;SDS011;48626;51.678;5.806;2023-04-24T01:03:32;15.68;;;9.60;;
62572;SDS011;48626;51.678;5.806;2023-04-24T01:06:02;14.02;;;9.40;;
62572;SDS011;48626;51.678;5.806;2023-04-24T01:08:29;17.15;;;9.65;;
62572;SDS011;48626;51.678;5.806;2023-04-24T01:10:56;16.17;;;9.57;;
62572;SDS011;48626;51.678;5.806;2023-04-24T01:13:22;13.77;;;10.40;;
62572;SDS011;48626;51.678;5.806;2023-04-24T01:15:48;16.65;;;9.90;;
62572;SDS011;48626;51.678;5.806;2023-04-24T01:18:14;20.15;;;10.02;;
62572;SDS011;48626;51.678;5.806;2023-04-24T01:20:42;21.17;;;10.90;;
62572;SDS011;48626;51.678;5.806;2023-04-24T01:23:10;19.30;;;10.75;;
62572;SDS011;48626;51.678;5.806;2023-04-24T01:25:36;17.52;;;9.75;;
62572;SDS011;48626;51.678;5.806;2023-04-24T01:28:02;19.45;;;10.40;;
62572;SDS011;48626;51.678;5.806;2023-04-24T01:30:28;22.33;;;10.75;;
62572;SDS011;48626;51.678;5.806;2023-04-24T01:32:55;18.13;;;10.40;;
62572;SDS011;48626;51.678;5.806;2023-04-24T01:35:21;21.73;;;11.30;;
62572;SDS011;48626;51.678;5.806;2023-04-24T01:37:47;18.17;;;10.38;;
62572;SDS011;48626;51.678;5.806;2023-04-24T01:40:13;22.10;;;11.18;;
62572;SDS011;48626;51.678;5.806;2023-04-24T01:42:40;17.98;;;10.85;;
62572;SDS011;48626;51.678;5.806;2023-04-24T01:45:06;19.05;;;10.82;;
62572;SDS011;48626;51.678;5.806;2023-04-24T01:47:36;19.88;;;11.35;;
62572;SDS011;48626;51.678;5.806;2023-04-24T01:50:03;20.33;;;11.57;;
62572;SDS011;48626;51.678;5.806;2023-04-24T01:52:29;21.85;;;11.48;;
62572;SDS011;48626;51.678;5.806;2023-04-24T01:54:59;18.38;;;11.73;;
62572;SDS011;48626;51.678;5.806;2023-04-24T01:57:25;18.63;;;11.35;;
62572;SDS011;48626;51.678;5.806;2023-04-24T01:59:51;16.20;;;10.32;;
62572;SDS011;48626;51.678;5.806;2023-04-24T02:02:17;22.08;;;11.52;;
62572;SDS011;48626;51.678;5.806;2023-04-24T02:04:43;20.15;;;11.77;;
62572;SDS011;48626;51.678;5.806;2023-04-24T02:07:08;16.92;;;10.90;;
62572;SDS011;48626;51.678;5.806;2023-04-24T02:09:34;19.95;;;11.73;;
62572;SDS011;48626;51.678;5.806;2023-04-24T02:12:00;20.38;;;11.98;;
62572;SDS011;48626;51.678;5.806;2023-04-24T02:14:26;20.20;;;12.00;;
62572;SDS011;48626;51.678;5.806;2023-04-24T02:16:51;20.05;;;13.18;;
62572;SDS011;48626;51.678;5.806;2023-04-24T02:19:18;19.13;;;13.00;;
62572;SDS011;48626;51.678;5.806;2023-04-24T02:21:44;22.77;;;14.68;;
62572;SDS011;48626;51.678;5.806;2023-04-24T02:24:10;23.55;;;14.25;;
62572;SDS011;48626;51.678;5.806;2023-04-24T02:26:36;24.55;;;14.30;;
62572;SDS011;48626;51.678;5.806;2023-04-24T02:29:01;21.52;;;14.30;;
62572;SDS011;48626;51.678;5.806;2023-04-24T02:31:27;27.17;;;15.18;;
62572;SDS011;48626;51.678;5.806;2023-04-24T02:33:52;20.67;;;15.10;;
62572;SDS011;48626;51.678;5.806;2023-04-24T02:36:18;23.92;;;15.15;;
62572;SDS011;48626;51.678;5.806;2023-04-24T02:38:44;26.50;;;15.80;;
62572;SDS011;48626;51.678;5.806;2023-04-24T02:41:10;24.17;;;14.95;;
62572;SDS011;48626;51.678;5.806;2023-04-24T02:43:36;31.33;;;16.25;;
62572;SDS011;48626;51.678;5.806;2023-04-24T02:46:01;23.27;;;15.57;;
62572;SDS011;48626;51.678;5.806;2023-04-24T02:48:27;22.30;;;15.20;;
62572;SDS011;48626;51.678;5.806;2023-04-24T02:50:53;25.10;;;15.63;;
62572;SDS011;48626;51.678;5.806;2023-04-24T02:53:19;27.40;;;15.07;;
62572;SDS011;48626;51.678;5.806;2023-04-24T02:55:45;26.15;;;15.27;;
62572;SDS011;48626;51.678;5.806;2023-04-24T02:58:11;24.92;;;15.05;;
62572;SDS011;48626;51.678;5.806;2023-04-24T03:00:38;22.27;;;14.70;;
62572;SDS011;48626;51.678;5.806;2023-04-24T03:03:04;26.95;;;15.65;;
62572;SDS011;48626;51.678;5.806;2023-04-24T03:05:30;24.23;;;15.15;;
62572;SDS011;48626;51.678;5.806;2023-04-24T03:07:56;26.60;;;16.17;;
62572;SDS011;48626;51.678;5.806;2023-04-24T03:10:22;24.00;;;15.18;;
62572;SDS011;48626;51.678;5.806;2023-04-24T03:12:48;23.70;;;14.98;;
62572;SDS011;48626;51.678;5.806;2023-04-24T03:15:14;29.73;;;15.38;;
62572;SDS011;48626;51.678;5.806;2023-04-24T03:17:39;24.67;;;15.35;;
62572;SDS011;48626;51.678;5.806;2023-04-24T03:20:05;23.58;;;15.57;;
62572;SDS011;48626;51.678;5.806;2023-04-24T03:22:33;28.67;;;15.25;;
62572;SDS011;48626;51.678;5.806;2023-04-24T03:24:59;26.60;;;15.63;;
62572;SDS011;48626;51.678;5.806;2023-04-24T03:27:26;26.98;;;15.65;;
62572;SDS011;48626;51.678;5.806;2023-04-24T03:29:52;24.80;;;15.38;;
62572;SDS011;48626;51.678;5.806;2023-04-24T03:32:20;26.00;;;15.60;;
62572;SDS011;48626;51.678;5.806;2023-04-24T03:34:49;21.30;;;14.23;;
62572;SDS011;48626;51.678;5.806;2023-04-24T03:37:16;25.27;;;15.38;;
62572;SDS011;48626;51.678;5.806;2023-04-24T03:39:42;21.30;;;15.27;;
62572;SDS011;48626;51.678;5.806;2023-04-24T03:42:07;22.23;;;14.75;;
62572;SDS011;48626;51.678;5.806;2023-04-24T03:44:33;29.90;;;15.75;;
62572;SDS011;48626;51.678;5.806;2023-04-24T03:47:00;23.30;;;14.65;;
62572;SDS011;48626;51.678;5.806;2023-04-24T03:49:25;27.48;;;14.32;;
62572;SDS011;48626;51.678;5.806;2023-04-24T03:51:51;26.92;;;14.43;;
62572;SDS011;48626;51.678;5.806;2023-04-24T03:54:17;24.92;;;14.52;;
62572;SDS011;48626;51.678;5.806;2023-04-24T03:56:46;24.30;;;15.45;;
62572;SDS011;48626;51.678;5.806;2023-04-24T03:59:11;24.80;;;15.20;;
62572;SDS011;48626;51.678;5.806;2023-04-24T04:01:38;27.42;;;14.77;;
62572;SDS011;48626;51.678;5.806;2023-04-24T04:04:04;21.30;;;14.05;;
62572;SDS011;48626;51.678;5.806;2023-04-24T04:06:33;25.02;;;14.65;;
62572;SDS011;48626;51.678;5.806;2023-04-24T04:08:59;23.50;;;13.60;;
62572;SDS011;48626;51.678;5.806;2023-04-24T04:11:25;23.63;;;13.90;;
62572;SDS011;48626;51.678;5.806;2023-04-24T04:13:51;23.42;;;13.75;;
62572;SDS011;48626;51.678;5.806;2023-04-24T04:16:17;25.98;;;13.32;;
62572;SDS011;48626;51.678;5.806;2023-04-24T04:18:43;20.95;;;12.93;;
62572;SDS011;48626;51.678;5.806;2023-04-24T04:21:09;22.00;;;13.00;;
62572;SDS011;48626;51.678;5.806;2023-04-24T04:23:35;23.13;;;12.52;;
62572;SDS011;48626;51.678;5.806;2023-04-24T04:26:01;22.45;;;12.60;;
62572;SDS011;48626;51.678;5.806;2023-04-24T04:28:29;22.25;;;12.75;;
62572;SDS011;48626;51.678;5.806;2023-04-24T04:30:56;21.73;;;11.88;;
62572;SDS011;48626;51.678;5.806;2023-04-24T04:33:26;23.52;;;12.52;;
62572;SDS011;48626;51.678;5.806;2023-04-24T04:35:52;19.70;;;12.57;;
62572;SDS011;48626;51.678;5.806;2023-04-24T04:38:18;26.25;;;12.35;;
62572;SDS011;48626;51.678;5.806;2023-04-24T04:40:44;18.73;;;12.15;;
62572;SDS011;48626;51.678;5.806;2023-04-24T04:43:11;19.17;;;11.50;;
62572;SDS011;48626;51.678;5.806;2023-04-24T04:45:38;22.55;;;12.07;;
62572;SDS011;48626;51.678;5.806;2023-04-24T04:48:06;16.77;;;11.27;;
62572;SDS011;48626;51.678;5.806;2023-04-24T04:50:33;20.88;;;11.57;;
62572;SDS011;48626;51.678;5.806;2023-04-24T04:53:03;25.05;;;11.98;;
62572;SDS011;48626;51.678;5.806;2023-04-24T04:55:28;23.10;;;11.93;;
62572;SDS011;48626;51.678;5.806;2023-04-24T04:57:54;18.23;;;11.23;;
62572;SDS011;48626;51.678;5.806;2023-04-24T05:00:21;29.25;;;11.57;;
62572;SDS011;48626;51.678;5.806;2023-04-24T05:02:50;17.48;;;10.77;;
62572;SDS011;48626;51.678;5.806;2023-04-24T05:05:16;22.42;;;11.10;;
62572;SDS011;48626;51.678;5.806;2023-04-24T05:07:43;18.88;;;11.38;;
62572;SDS011;48626;51.678;5.806;2023-04-24T05:10:09;17.80;;;10.95;;
62572;SDS011;48626;51.678;5.806;2023-04-24T05:12:35;15.10;;;10.73;;
62572;SDS011;48626;51.678;5.806;2023-04-24T05:15:01;18.00;;;10.75;;
62572;SDS011;48626;51.678;5.806;2023-04-24T05:17:28;15.70;;;9.95;;
62572;SDS011;48626;51.678;5.806;2023-04-24T05:19:54;14.02;;;9.90;;
62572;SDS011;48626;51.678;5.806;2023-04-24T05:22:19;13.85;;;10.05;;
62572;SDS011;48626;51.678;5.806;2023-04-24T05:24:46;14.63;;;9.40;;
62572;SDS011;48626;51.678;5.806;2023-04-24T05:27:12;14.73;;;9.15;;
62572;SDS011;48626;51.678;5.806;2023-04-24T05:29:38;15.25;;;9.23;;
62572;SDS011;48626;51.678;5.806;2023-04-24T05:32:05;12.38;;;9.18;;
62572;SDS011;48626;51.678;5.806;2023-04-24T05:34:32;10.45;;;8.25;;
62572;SDS011;48626;51.678;5.806;2023-04-24T05:36:57;12.43;;;7.95;;
62572;SDS011;48626;51.678;5.806;2023-04-24T05:39:23;10.07;;;7.57;;
62572;SDS011;48626;51.678;5.806;2023-04-24T05:41:50;12.13;;;8.45;;
62572;SDS011;48626;51.678;5.806;2023-04-24T05:44:16;14.35;;;8.93;;
62572;SDS011;48626;51.678;5.806;2023-04-24T05:46:42;15.45;;;8.73;;
62572;SDS011;48626;51.678;5.806;2023-04-24T05:49:08;13.20;;;8.90;;
62572;SDS011;48626;51.678;5.806;2023-04-24T05:51:34;11.68;;;8.43;;
62572;SDS011;48626;51.678;5.806;2023-04-24T05:54:00;14.27;;;8.52;;
62572;SDS011;48626;51.678;5.806;2023-04-24T05:56:26;11.95;;;8.00;;
62572;SDS011;48626;51.678;5.806;2023-04-24T05:58:53;14.45;;;8.52;;
62572;SDS011;48626;51.678;5.806;2023-04-24T06:01:18;11.85;;;7.70;;
62572;SDS011;48626;51.678;5.806;2023-04-24T06:03:44;10.73;;;7.82;;
62572;SDS011;48626;51.678;5.806;2023-04-24T06:06:10;13.32;;;8.88;;
62572;SDS011;48626;51.678;5.806;2023-04-24T06:08:37;13.25;;;7.97;;
62572;SDS011;48626;51.678;5.806;2023-04-24T06:11:02;11.10;;;8.30;;
62572;SDS011;48626;51.678;5.806;2023-04-24T06:13:28;11.43;;;7.57;;
62572;SDS011;48626;51.678;5.806;2023-04-24T06:15:55;14.15;;;8.00;;
62572;SDS011;48626;51.678;5.806;2023-04-24T06:18:21;16.20;;;8.45;;
62572;SDS011;48626;51.678;5.806;2023-04-24T06:20:46;13.88;;;8.93;;
62572;SDS011;48626;51.678;5.806;2023-04-24T06:23:12;14.48;;;9.10;;
62572;SDS011;48626;51.678;5.806;2023-04-24T06:25:38;10.73;;;5.80;;
62572;SDS011;48626;51.678;5.806;2023-04-24T06:28:04;8.48;;;5.63;;
62572;SDS011;48626;51.678;5.806;2023-04-24T06:30:30;9.93;;;5.90;;
62572;SDS011;48626;51.678;5.806;2023-04-24T06:32:56;9.77;;;5.75;;
62572;SDS011;48626;51.678;5.806;2023-04-24T06:35:21;7.55;;;4.38;;
62572;SDS011;48626;51.678;5.806;2023-04-24T06:37:47;8.32;;;5.68;;
62572;SDS011;48626;51.678;5.806;2023-04-24T06:40:13;5.97;;;4.28;;
62572;SDS011;48626;51.678;5.806;2023-04-24T06:42:39;4.88;;;2.95;;
62572;SDS011;48626;51.678;5.806;2023-04-24T06:45:05;5.45;;;3.83;;
62572;SDS011;48626;51.678;5.806;2023-04-24T06:47:32;6.30;;;4.30;;
62572;SDS011;48626;51.678;5.806;2023-04-24T06:49:58;4.00;;;2.85;;
62572;SDS011;48626;51.678;5.806;2023-04-24T06:52:23;4.35;;;2.70;;
62572;SDS011;48626;51.678;5.806;2023-04-24T06:54:50;5.78;;;2.85;;
62572;SDS011;48626;51.678;5.806;2023-04-24T06:57:16;4.25;;;2.65;;
62572;SDS011;48626;51.678;5.806;2023-04-24T06:59:42;22.45;;;10.30;;
62572;SDS011;48626;51.678;5.806;2023-04-24T07:02:08;18.00;;;7.57;;
62572;SDS011;48626;51.678;5.806;2023-04-24T07:04:33;8.85;;;5.43;;
62572;SDS011;48626;51.678;5.806;2023-04-24T07:06:59;7.00;;;4.53;;
62572;SDS011;48626;51.678;5.806;2023-04-24T07:09:26;7.25;;;4.25;;
62572;SDS011;48626;51.678;5.806;2023-04-24T07:11:53;4.18;;;2.70;;
62572;SDS011;48626;51.678;5.806;2023-04-24T07:14:19;4.57;;;3.20;;
62572;SDS011;48626;51.678;5.806;2023-04-24T07:16:45;4.40;;;2.80;;
62572;SDS011;48626;51.678;5.806;2023-04-24T07:19:11;6.35;;;2.70;;
62572;SDS011;48626;51.678;5.806;2023-04-24T07:21:38;5.32;;;2.30;;
62572;SDS011;48626;51.678;5.806;2023-04-24T07:24:03;4.38;;;2.10;;
62572;SDS011;48626;51.678;5.806;2023-04-24T07:26:29;4.82;;;2.30;;
62572;SDS011;48626;51.678;5.806;2023-04-24T07:28:56;5.55;;;2.88;;
62572;SDS011;48626;51.678;5.806;2023-04-24T07:31:22;4.72;;;2.85;;
62572;SDS011;48626;51.678;5.806;2023-04-24T07:33:48;6.05;;;3.97;;
62572;SDS011;48626;51.678;5.806;2023-04-24T07:36:14;6.18;;;3.75;;
62572;SDS011;48626;51.678;5.806;2023-04-24T07:38:43;7.72;;;4.28;;
62572;SDS011;48626;51.678;5.806;2023-04-24T07:41:13;11.48;;;5.95;;
62572;SDS011;48626;51.678;5.806;2023-04-24T07:43:39;16.52;;;6.78;;
62572;SDS011;48626;51.678;5.806;2023-04-24T07:46:05;11.35;;;6.53;;
62572;SDS011;48626;51.678;5.806;2023-04-24T07:48:31;15.63;;;7.88;;
62572;SDS011;48626;51.678;5.806;2023-04-24T07:50:57;14.18;;;8.18;;
62572;SDS011;48626;51.678;5.806;2023-04-24T07:53:23;16.02;;;8.55;;
62572;SDS011;48626;51.678;5.806;2023-04-24T07:55:48;17.02;;;9.65;;
62572;SDS011;48626;51.678;5.806;2023-04-24T07:58:14;21.17;;;8.25;;
62572;SDS011;48626;51.678;5.806;2023-04-24T08:00:40;23.25;;;9.13;;
62572;SDS011;48626;51.678;5.806;2023-04-24T08:03:06;19.40;;;9.57;;
62572;SDS011;48626;51.678;5.806;2023-04-24T08:05:32;15.65;;;9.23;;
62572;SDS011;48626;51.678;5.806;2023-04-24T08:07:58;12.85;;;8.75;;
62572;SDS011;48626;51.678;5.806;2023-04-24T08:10:24;33.20;;;9.15;;
62572;SDS011;48626;51.678;5.806;2023-04-24T08:12:50;18.48;;;8.57;;
62572;SDS011;48626;51.678;5.806;2023-04-24T08:15:17;21.48;;;7.97;;
62572;SDS011;48626;51.678;5.806;2023-04-24T08:17:43;23.88;;;8.00;;
62572;SDS011;48626;51.678;5.806;2023-04-24T08:20:09;17.85;;;8.43;;
62572;SDS011;48626;51.678;5.806;2023-04-24T08:22:38;13.52;;;8.23;;
62572;SDS011;48626;51.678;5.806;2023-04-24T08:25:05;25.83;;;8.80;;
62572;SDS011;48626;51.678;5.806;2023-04-24T08:27:31;22.92;;;8.20;;
62572;SDS011;48626;51.678;5.806;2023-04-24T08:29:57;22.85;;;7.82;;
62572;SDS011;48626;51.678;5.806;2023-04-24T08:32:24;15.60;;;7.78;;
62572;SDS011;48626;51.678;5.806;2023-04-24T08:34:54;21.50;;;7.75;;
62572;SDS011;48626;51.678;5.806;2023-04-24T08:37:23;19.27;;;7.88;;
62572;SDS011;48626;51.678;5.806;2023-04-24T08:39:51;26.90;;;8.82;;
62572;SDS011;48626;51.678;5.806;2023-04-24T08:42:17;18.80;;;7.32;;
62572;SDS011;48626;51.678;5.806;2023-04-24T08:44:43;25.83;;;7.95;;
62572;SDS011;48626;51.678;5.806;2023-04-24T08:47:10;25.45;;;8.52;;
62572;SDS011;48626;51.678;5.806;2023-04-24T08:49:37;24.13;;;7.57;;
62572;SDS011;48626;51.678;5.806;2023-04-24T08:52:04;19.55;;;6.85;;
62572;SDS011;48626;51.678;5.806;2023-04-24T08:54:31;19.05;;;6.88;;
62572;SDS011;48626;51.678;5.806;2023-04-24T08:56:59;16.77;;;4.63;;
62572;SDS011;48626;51.678;5.806;2023-04-24T08:59:27;15.63;;;4.95;;
62572;SDS011;48626;51.678;5.806;2023-04-24T09:01:53;15.98;;;4.78;;
62572;SDS011;48626;51.678;5.806;2023-04-24T09:04:20;17.75;;;4.97;;
62572;SDS011;48626;51.678;5.806;2023-04-24T09:06:49;14.90;;;5.25;;
62572;SDS011;48626;51.678;5.806;2023-04-24T09:09:22;24.45;;;5.20;;
62572;SDS011;48626;51.678;5.806;2023-04-24T09:11:50;20.30;;;4.50;;
62572;SDS011;48626;51.678;5.806;2023-04-24T09:14:18;25.27;;;5.00;;
62572;SDS011;48626;51.678;5.806;2023-04-24T09:16:44;23.73;;;5.55;;
62572;SDS011;48626;51.678;5.806;2023-04-24T09:19:11;22.75;;;5.43;;
62572;SDS011;48626;51.678;5.806;2023-04-24T09:21:37;22.05;;;4.95;;
62572;SDS011;48626;51.678;5.806;2023-04-24T09:24:04;17.88;;;4.50;;
62572;SDS011;48626;51.678;5.806;2023-04-24T09:26:34;22.88;;;5.10;;
62572;SDS011;48626;51.678;5.806;2023-04-24T09:29:01;28.15;;;5.22;;
62572;SDS011;48626;51.678;5.806;2023-04-24T09:31:28;22.40;;;4.95;;
62572;SDS011;48626;51.678;5.806;2023-04-24T09:33:55;21.63;;;4.60;;
62572;SDS011;48626;51.678;5.806;2023-04-24T09:36:26;17.48;;;4.78;;
62572;SDS011;48626;51.678;5.806;2023-04-24T09:39:00;23.42;;;5.05;;
62572;SDS011;48626;51.678;5.806;2023-04-24T09:41:27;27.83;;;4.70;;
62572;SDS011;48626;51.678;5.806;2023-04-24T09:43:56;16.45;;;4.32;;
62572;SDS011;48626;51.678;5.806;2023-04-24T09:46:32;22.98;;;4.85;;
62572;SDS011;48626;51.678;5.806;2023-04-24T09:49:02;21.30;;;5.38;;
62572;SDS011;48626;51.678;5.806;2023-04-24T09:51:34;17.90;;;4.25;;
62572;SDS011;48626;51.678;5.806;2023-04-24T09:54:04;16.70;;;4.23;;
62572;SDS011;48626;51.678;5.806;2023-04-24T09:56:38;14.82;;;4.80;;
62572;SDS011;48626;51.678;5.806;2023-04-24T09:59:10;22.08;;;4.80;;
62572;SDS011;48626;51.678;5.806;2023-04-24T10:01:36;15.48;;;3.80;;
62572;SDS011;48626;51.678;5.806;2023-04-24T10:04:04;14.30;;;4.63;;
62572;SDS011;48626;51.678;5.806;2023-04-24T10:06:33;22.50;;;4.63;;
62572;SDS011;48626;51.678;5.806;2023-04-24T10:09:01;17.58;;;4.40;;
62572;SDS011;48626;51.678;5.806;2023-04-24T10:11:27;16.95;;;4.53;;
62572;SDS011;48626;51.678;5.806;2023-04-24T10:13:53;13.13;;;3.67;;
62572;SDS011;48626;51.678;5.806;2023-04-24T10:16:21;20.77;;;4.38;;
62572;SDS011;48626;51.678;5.806;2023-04-24T10:18:47;18.92;;;4.45;;
62572;SDS011;48626;51.678;5.806;2023-04-24T10:21:14;14.10;;;3.85;;
62572;SDS011;48626;51.678;5.806;2023-04-24T10:23:42;14.68;;;4.20;;
62572;SDS011;48626;51.678;5.806;2023-04-24T10:26:10;13.70;;;3.78;;
62572;SDS011;48626;51.678;5.806;2023-04-24T10:28:43;15.63;;;4.05;;
62572;SDS011;48626;51.678;5.806;2023-04-24T10:31:11;17.85;;;4.13;;
62572;SDS011;48626;51.678;5.806;2023-04-24T10:33:39;16.15;;;3.80;;
62572;SDS011;48626;51.678;5.806;2023-04-24T10:36:07;16.58;;;3.97;;
62572;SDS011;48626;51.678;5.806;2023-04-24T10:38:38;18.38;;;3.80;;
62572;SDS011;48626;51.678;5.806;2023-04-24T10:41:07;18.08;;;4.43;;
62572;SDS011;48626;51.678;5.806;2023-04-24T10:43:35;18.58;;;3.80;;
62572;SDS011;48626;51.678;5.806;2023-04-24T10:46:02;12.10;;;3.50;;
62572;SDS011;48626;51.678;5.806;2023-04-24T10:48:29;14.75;;;4.00;;
62572;SDS011;48626;51.678;5.806;2023-04-24T10:50:55;7.78;;;3.70;;
62572;SDS011;48626;51.678;5.806;2023-04-24T10:53:26;19.17;;;3.85;;
62572;SDS011;48626;51.678;5.806;2023-04-24T10:56:04;6.43;;;2.78;;
62572;SDS011;48626;51.678;5.806;2023-04-24T10:58:39;9.07;;;2.40;;
62572;SDS011;48626;51.678;5.806;2023-04-24T11:01:24;7.95;;;2.78;;
62572;SDS011;48626;51.678;5.806;2023-04-24T11:03:56;10.00;;;2.70;;
62572;SDS011;48626;51.678;5.806;2023-04-24T11:06:33;6.53;;;2.75;;
62572;SDS011;48626;51.678;5.806;2023-04-24T11:11:36;8.25;;;3.13;;
62572;SDS011;48626;51.678;5.806;2023-04-24T11:14:05;7.38;;;3.00;;
62572;SDS011;48626;51.678;5.806;2023-04-24T11:29:44;8.35;;;2.45;;
62572;SDS011;48626;51.678;5.806;2023-04-24T11:32:15;8.95;;;2.70;;
62572;SDS011;48626;51.678;5.806;2023-04-24T11:34:53;6.40;;;2.70;;
62572;SDS011;48626;51.678;5.806;2023-04-24T11:37:23;5.38;;;3.10;;
62572;SDS011;48626;51.678;5.806;2023-04-24T11:39:51;5.05;;;2.85;;
62572;SDS011;48626;51.678;5.806;2023-04-24T11:42:23;5.93;;;2.13;;
62572;SDS011;48626;51.678;5.806;2023-04-24T11:44:53;6.07;;;2.72;;
62572;SDS011;48626;51.678;5.806;2023-04-24T11:47:28;7.40;;;2.40;;
62572;SDS011;48626;51.678;5.806;2023-04-24T11:49:55;7.10;;;2.38;;
62572;SDS011;48626;51.678;5.806;2023-04-24T11:52:22;11.80;;;2.70;;
62572;SDS011;48626;51.678;5.806;2023-04-24T11:54:48;4.95;;;2.50;;
62572;SDS011;48626;51.678;5.806;2023-04-24T11:57:15;4.60;;;2.30;;
62572;SDS011;48626;51.678;5.806;2023-04-24T11:59:41;6.40;;;2.40;;
62572;SDS011;48626;51.678;5.806;2023-04-24T12:02:07;4.57;;;2.20;;
62572;SDS011;48626;51.678;5.806;2023-04-24T12:04:41;5.07;;;2.30;;
62572;SDS011;48626;51.678;5.806;2023-04-24T12:07:07;6.00;;;2.45;;
62572;SDS011;48626;51.678;5.806;2023-04-24T12:09:43;6.07;;;2.50;;
62572;SDS011;48626;51.678;5.806;2023-04-24T12:12:11;10.85;;;2.65;;
62572;SDS011;48626;51.678;5.806;2023-04-24T12:14:42;9.95;;;2.67;;
62572;SDS011;48626;51.678;5.806;2023-04-24T12:19:52;8.73;;;2.90;;
62572;SDS011;48626;51.678;5.806;2023-04-24T12:22:21;14.17;;;2.80;;
62572;SDS011;48626;51.678;5.806;2023-04-24T12:25:03;9.05;;;3.03;;
62572;SDS011;48626;51.678;5.806;2023-04-24T12:27:31;9.60;;;2.80;;
62572;SDS011;48626;51.678;5.806;2023-04-24T12:30:02;8.48;;;3.17;;
62572;SDS011;48626;51.678;5.806;2023-04-24T12:32:34;14.10;;;3.03;;
62572;SDS011;48626;51.678;5.806;2023-04-24T12:35:00;7.57;;;2.67;;
62572;SDS011;48626;51.678;5.806;2023-04-24T12:37:32;10.48;;;3.13;;
62572;SDS011;48626;51.678;5.806;2023-04-24T12:42:33;15.93;;;3.30;;
62572;SDS011;48626;51.678;5.806;2023-04-24T12:45:01;14.00;;;3.50;;
62572;SDS011;48626;51.678;5.806;2023-04-24T12:47:31;8.70;;;3.22;;
62572;SDS011;48626;51.678;5.806;2023-04-24T12:49:58;8.65;;;3.33;;
62572;SDS011;48626;51.678;5.806;2023-04-24T12:52:28;11.10;;;2.90;;
62572;SDS011;48626;51.678;5.806;2023-04-24T12:54:58;9.48;;;2.80;;
62572;SDS011;48626;51.678;5.806;2023-04-24T12:57:25;5.47;;;2.38;;
62572;SDS011;48626;51.678;5.806;2023-04-24T12:59:57;6.72;;;2.60;;
62572;SDS011;48626;51.678;5.806;2023-04-24T13:02:24;15.27;;;3.13;;
62572;SDS011;48626;51.678;5.806;2023-04-24T13:04:51;12.38;;;2.95;;
62572;SDS011;48626;51.678;5.806;2023-04-24T13:07:17;10.35;;;3.33;;
62572;SDS011;48626;51.678;5.806;2023-04-24T13:09:43;7.38;;;2.80;;
62572;SDS011;48626;51.678;5.806;2023-04-24T13:12:10;8.73;;;3.10;;
62572;SDS011;48626;51.678;5.806;2023-04-24T13:14:36;6.82;;;2.83;;
62572;SDS011;48626;51.678;5.806;2023-04-24T13:17:02;7.13;;;2.90;;
62572;SDS011;48626;51.678;5.806;2023-04-24T13:19:29;9.25;;;2.80;;
62572;SDS011;48626;51.678;5.806;2023-04-24T13:22:00;8.50;;;2.67;;
62572;SDS011;48626;51.678;5.806;2023-04-24T13:24:26;4.70;;;2.50;;
62572;SDS011;48626;51.678;5.806;2023-04-24T13:26:52;7.63;;;2.53;;
62572;SDS011;48626;51.678;5.806;2023-04-24T13:29:18;6.57;;;2.50;;
62572;SDS011;48626;51.678;5.806;2023-04-24T13:31:45;8.02;;;2.60;;
62572;SDS011;48626;51.678;5.806;2023-04-24T13:34:12;7.90;;;2.70;;
62572;SDS011;48626;51.678;5.806;2023-04-24T13:36:38;4.78;;;2.13;;
62572;SDS011;48626;51.678;5.806;2023-04-24T13:39:04;8.00;;;2.88;;
62572;SDS011;48626;51.678;5.806;2023-04-24T13:41:34;20.77;;;3.85;;
62572;SDS011;48626;51.678;5.806;2023-04-24T13:44:01;10.65;;;2.95;;
62572;SDS011;48626;51.678;5.806;2023-04-24T13:46:27;6.20;;;2.60;;
62572;SDS011;48626;51.678;5.806;2023-04-24T13:48:53;7.05;;;2.65;;
62572;SDS011;48626;51.678;5.806;2023-04-24T13:51:18;7.38;;;2.65;;
62572;SDS011;48626;51.678;5.806;2023-04-24T13:53:44;9.45;;;2.58;;
62572;SDS011;48626;51.678;5.806;2023-04-24T13:56:10;15.07;;;3.45;;
62572;SDS011;48626;51.678;5.806;2023-04-24T13:58:37;5.22;;;2.58;;
62572;SDS011;48626;51.678;5.806;2023-04-24T14:01:03;7.18;;;2.90;;
62572;SDS011;48626;51.678;5.806;2023-04-24T14:03:29;6.40;;;2.70;;
62572;SDS011;48626;51.678;5.806;2023-04-24T14:05:55;5.07;;;2.90;;
62572;SDS011;48626;51.678;5.806;2023-04-24T14:08:21;8.25;;;3.10;;
62572;SDS011;48626;51.678;5.806;2023-04-24T14:10:47;8.40;;;2.90;;
62572;SDS011;48626;51.678;5.806;2023-04-24T14:13:13;7.20;;;3.00;;
62572;SDS011;48626;51.678;5.806;2023-04-24T14:15:40;7.45;;;2.70;;
62572;SDS011;48626;51.678;5.806;2023-04-24T14:18:05;5.53;;;3.03;;
62572;SDS011;48626;51.678;5.806;2023-04-24T14:20:31;5.53;;;2.63;;
62572;SDS011;48626;51.678;5.806;2023-04-24T14:22:57;6.55;;;2.47;;
62572;SDS011;48626;51.678;5.806;2023-04-24T14:25:24;6.32;;;2.45;;
62572;SDS011;48626;51.678;5.806;2023-04-24T14:27:50;8.05;;;2.65;;
62572;SDS011;48626;51.678;5.806;2023-04-24T14:30:16;4.72;;;2.40;;
62572;SDS011;48626;51.678;5.806;2023-04-24T14:32:42;6.30;;;2.63;;
62572;SDS011;48626;51.678;5.806;2023-04-24T14:35:08;5.78;;;2.50;;
62572;SDS011;48626;51.678;5.806;2023-04-24T14:37:34;6.35;;;2.40;;
62572;SDS011;48626;51.678;5.806;2023-04-24T14:40:01;14.30;;;3.05;;
62572;SDS011;48626;51.678;5.806;2023-04-24T14:42:28;17.75;;;3.00;;
62572;SDS011;48626;51.678;5.806;2023-04-24T14:44:54;7.90;;;2.55;;
62572;SDS011;48626;51.678;5.806;2023-04-24T14:47:20;5.00;;;2.50;;
62572;SDS011;48626;51.678;5.806;2023-04-24T14:49:47;9.77;;;2.58;;
62572;SDS011;48626;51.678;5.806;2023-04-24T14:52:13;9.45;;;2.78;;
62572;SDS011;48626;51.678;5.806;2023-04-24T14:54:39;10.93;;;3.13;;